sensor_id;sensor_type;location;lat;lon;timestamp;P1;durP1;ratioP1;P2;durP2;ratioP2
23470;SDS011;11908;50.806;4.424;2023-01-29T00:00:36;37.45;;;20.98;;
23470;SDS011;11908;50.806;4.424;2023-01-29T00:03:02;41.28;;;22.75;;
23470;SDS011;11908;50.806;4.424;2023-01-29T00:05:28;36.28;;;20.30;;
23470;SDS011;11908;50.806;4.424;2023-01-29T00:07:54;36.67;;;20.33;;
23470;SDS011;11908;50.806;4.424;2023-01-29T00:10:21;33.88;;;19.80;;
23470;SDS011;11908;50.806;4.424;2023-01-29T00:12:47;33.20;;;19.48;;
23470;SDS011;11908;50.806;4.424;2023-01-29T00:15:12;37.85;;;19.45;;
23470;SDS011;11908;50.806;4.424;2023-01-29T00:17:38;33.88;;;19.73;;
23470;SDS011;11908;50.806;4.424;2023-01-29T00:20:04;37.85;;;20.08;;
23470;SDS011;11908;50.806;4.424;2023-01-29T00:22:30;36.85;;;20.38;;
23470;SDS011;11908;50.806;4.424;2023-01-29T00:24:55;33.40;;;20.23;;
23470;SDS011;11908;50.806;4.424;2023-01-29T00:27:21;36.25;;;19.67;;
23470;SDS011;11908;50.806;4.424;2023-01-29T00:29:47;32.45;;;19.25;;
23470;SDS011;11908;50.806;4.424;2023-01-29T00:32:32;32.53;;;19.13;;
23470;SDS011;11908;50.806;4.424;2023-01-29T00:34:58;30.05;;;18.15;;
23470;SDS011;11908;50.806;4.424;2023-01-29T00:37:24;35.15;;;19.33;;
23470;SDS011;11908;50.806;4.424;2023-01-29T00:39:49;33.05;;;19.25;;
23470;SDS011;11908;50.806;4.424;2023-01-29T00:42:15;31.95;;;19.00;;
23470;SDS011;11908;50.806;4.424;2023-01-29T00:44:59;33.78;;;19.25;;
23470;SDS011;11908;50.806;4.424;2023-01-29T00:47:25;32.92;;;19.75;;
23470;SDS011;11908;50.806;4.424;2023-01-29T00:50:00;43.47;;;21.90;;
23470;SDS011;11908;50.806;4.424;2023-01-29T00:52:28;37.45;;;22.25;;
23470;SDS011;11908;50.806;4.424;2023-01-29T00:54:55;37.80;;;20.55;;
23470;SDS011;11908;50.806;4.424;2023-01-29T00:57:23;34.92;;;19.88;;
23470;SDS011;11908;50.806;4.424;2023-01-29T00:59:50;34.55;;;19.63;;
23470;SDS011;11908;50.806;4.424;2023-01-29T01:02:16;34.42;;;19.88;;
23470;SDS011;11908;50.806;4.424;2023-01-29T01:05:00;37.53;;;21.63;;
23470;SDS011;11908;50.806;4.424;2023-01-29T01:07:27;39.53;;;22.35;;
23470;SDS011;11908;50.806;4.424;2023-01-29T01:09:53;37.13;;;22.10;;
23470;SDS011;11908;50.806;4.424;2023-01-29T01:12:37;35.22;;;20.42;;
23470;SDS011;11908;50.806;4.424;2023-01-29T01:15:03;36.00;;;20.95;;
23470;SDS011;11908;50.806;4.424;2023-01-29T01:17:29;35.08;;;19.35;;
23470;SDS011;11908;50.806;4.424;2023-01-29T01:19:54;33.15;;;18.90;;
23470;SDS011;11908;50.806;4.424;2023-01-29T01:22:20;33.47;;;18.85;;
23470;SDS011;11908;50.806;4.424;2023-01-29T01:24:46;29.02;;;17.90;;
23470;SDS011;11908;50.806;4.424;2023-01-29T01:27:12;31.35;;;18.60;;
23470;SDS011;11908;50.806;4.424;2023-01-29T01:29:37;36.83;;;20.70;;
23470;SDS011;11908;50.806;4.424;2023-01-29T01:32:03;33.20;;;19.48;;
23470;SDS011;11908;50.806;4.424;2023-01-29T01:34:30;34.90;;;19.73;;
23470;SDS011;11908;50.806;4.424;2023-01-29T01:36:55;31.38;;;19.10;;
23470;SDS011;11908;50.806;4.424;2023-01-29T01:39:22;31.67;;;20.23;;
23470;SDS011;11908;50.806;4.424;2023-01-29T01:41:49;35.50;;;19.77;;
23470;SDS011;11908;50.806;4.424;2023-01-29T01:47:28;38.90;;;21.40;;
23470;SDS011;11908;50.806;4.424;2023-01-29T01:50:08;31.25;;;19.27;;
23470;SDS011;11908;50.806;4.424;2023-01-29T01:52:41;36.65;;;20.10;;
23470;SDS011;11908;50.806;4.424;2023-01-29T01:55:12;37.67;;;21.30;;
23470;SDS011;11908;50.806;4.424;2023-01-29T01:57:41;38.92;;;21.90;;
23470;SDS011;11908;50.806;4.424;2023-01-29T02:00:10;35.78;;;21.83;;
23470;SDS011;11908;50.806;4.424;2023-01-29T02:02:40;37.63;;;23.20;;
23470;SDS011;11908;50.806;4.424;2023-01-29T02:05:26;35.83;;;21.50;;
23470;SDS011;11908;50.806;4.424;2023-01-29T02:08:12;37.28;;;21.35;;
23470;SDS011;11908;50.806;4.424;2023-01-29T02:10:57;36.40;;;19.90;;
23470;SDS011;11908;50.806;4.424;2023-01-29T02:13:24;32.33;;;19.45;;
23470;SDS011;11908;50.806;4.424;2023-01-29T02:15:50;35.05;;;19.50;;
23470;SDS011;11908;50.806;4.424;2023-01-29T02:18:17;33.88;;;19.10;;
23470;SDS011;11908;50.806;4.424;2023-01-29T02:20:52;35.65;;;21.17;;
23470;SDS011;11908;50.806;4.424;2023-01-29T02:29:13;38.22;;;20.67;;
23470;SDS011;11908;50.806;4.424;2023-01-29T02:38:01;36.13;;;21.45;;
23470;SDS011;11908;50.806;4.424;2023-01-29T02:41:02;42.58;;;22.98;;
23470;SDS011;11908;50.806;4.424;2023-01-29T02:46:36;39.60;;;20.92;;
23470;SDS011;11908;50.806;4.424;2023-01-29T02:56:50;35.47;;;20.05;;
23470;SDS011;11908;50.806;4.424;2023-01-29T02:59:45;33.75;;;19.98;;
23470;SDS011;11908;50.806;4.424;2023-01-29T03:05:17;39.20;;;23.65;;
23470;SDS011;11908;50.806;4.424;2023-01-29T03:07:50;35.83;;;21.30;;
23470;SDS011;11908;50.806;4.424;2023-01-29T03:10:22;40.85;;;21.65;;
23470;SDS011;11908;50.806;4.424;2023-01-29T03:15:42;36.47;;;21.38;;
23470;SDS011;11908;50.806;4.424;2023-01-29T03:18:16;42.97;;;22.05;;
23470;SDS011;11908;50.806;4.424;2023-01-29T03:20:45;39.45;;;21.10;;
23470;SDS011;11908;50.806;4.424;2023-01-29T03:23:17;39.22;;;20.50;;
23470;SDS011;11908;50.806;4.424;2023-01-29T03:26:09;38.42;;;20.75;;
23470;SDS011;11908;50.806;4.424;2023-01-29T03:28:55;40.50;;;21.92;;
23470;SDS011;11908;50.806;4.424;2023-01-29T03:31:40;42.05;;;22.63;;
23470;SDS011;11908;50.806;4.424;2023-01-29T03:34:25;39.95;;;22.40;;
23470;SDS011;11908;50.806;4.424;2023-01-29T03:37:10;42.10;;;22.30;;
23470;SDS011;11908;50.806;4.424;2023-01-29T03:39:59;36.55;;;21.90;;
23470;SDS011;11908;50.806;4.424;2023-01-29T03:42:36;37.33;;;19.90;;
23470;SDS011;11908;50.806;4.424;2023-01-29T03:50:19;40.63;;;21.70;;
23470;SDS011;11908;50.806;4.424;2023-01-29T04:01:44;38.53;;;21.38;;
23470;SDS011;11908;50.806;4.424;2023-01-29T04:06:42;38.20;;;21.98;;
23470;SDS011;11908;50.806;4.424;2023-01-29T04:09:15;38.78;;;20.73;;
23470;SDS011;11908;50.806;4.424;2023-01-29T04:11:51;35.45;;;21.38;;
23470;SDS011;11908;50.806;4.424;2023-01-29T04:14:27;38.50;;;22.38;;
23470;SDS011;11908;50.806;4.424;2023-01-29T04:16:56;36.08;;;20.98;;
23470;SDS011;11908;50.806;4.424;2023-01-29T04:19:24;42.80;;;22.83;;
23470;SDS011;11908;50.806;4.424;2023-01-29T04:21:52;42.17;;;22.75;;
23470;SDS011;11908;50.806;4.424;2023-01-29T04:24:27;42.67;;;23.10;;
23470;SDS011;11908;50.806;4.424;2023-01-29T04:29:52;42.65;;;22.30;;
23470;SDS011;11908;50.806;4.424;2023-01-29T04:41:04;40.28;;;24.02;;
23470;SDS011;11908;50.806;4.424;2023-01-29T04:44:01;45.00;;;23.83;;
23470;SDS011;11908;50.806;4.424;2023-01-29T04:49:49;42.63;;;22.13;;
23470;SDS011;11908;50.806;4.424;2023-01-29T04:52:48;40.20;;;22.08;;
23470;SDS011;11908;50.806;4.424;2023-01-29T05:00:58;42.65;;;22.58;;
23470;SDS011;11908;50.806;4.424;2023-01-29T05:03:26;41.92;;;22.55;;
23470;SDS011;11908;50.806;4.424;2023-01-29T05:05:55;39.95;;;22.60;;
23470;SDS011;11908;50.806;4.424;2023-01-29T05:08:23;45.60;;;22.95;;
23470;SDS011;11908;50.806;4.424;2023-01-29T05:10:51;43.60;;;23.27;;
23470;SDS011;11908;50.806;4.424;2023-01-29T05:13:21;43.88;;;23.02;;
23470;SDS011;11908;50.806;4.424;2023-01-29T05:18:28;46.63;;;24.45;;
23470;SDS011;11908;50.806;4.424;2023-01-29T05:20:56;47.33;;;25.05;;
23470;SDS011;11908;50.806;4.424;2023-01-29T05:23:27;43.13;;;23.65;;
23470;SDS011;11908;50.806;4.424;2023-01-29T05:25:52;47.60;;;24.88;;
23470;SDS011;11908;50.806;4.424;2023-01-29T05:28:20;43.47;;;23.63;;
23470;SDS011;11908;50.806;4.424;2023-01-29T05:30:46;44.63;;;23.10;;
23470;SDS011;11908;50.806;4.424;2023-01-29T05:33:18;47.97;;;24.90;;
23470;SDS011;11908;50.806;4.424;2023-01-29T05:35:46;46.75;;;24.63;;
23470;SDS011;11908;50.806;4.424;2023-01-29T05:38:12;46.15;;;25.50;;
23470;SDS011;11908;50.806;4.424;2023-01-29T05:40:39;45.85;;;23.30;;
23470;SDS011;11908;50.806;4.424;2023-01-29T05:43:05;45.97;;;25.40;;
23470;SDS011;11908;50.806;4.424;2023-01-29T05:45:41;46.22;;;24.77;;
23470;SDS011;11908;50.806;4.424;2023-01-29T05:48:08;49.78;;;25.48;;
23470;SDS011;11908;50.806;4.424;2023-01-29T05:50:33;43.03;;;24.45;;
23470;SDS011;11908;50.806;4.424;2023-01-29T05:52:59;53.50;;;26.52;;
23470;SDS011;11908;50.806;4.424;2023-01-29T05:55:26;49.45;;;25.88;;
23470;SDS011;11908;50.806;4.424;2023-01-29T05:57:53;51.60;;;27.67;;
23470;SDS011;11908;50.806;4.424;2023-01-29T06:00:19;49.30;;;26.10;;
23470;SDS011;11908;50.806;4.424;2023-01-29T06:02:45;50.40;;;26.02;;
23470;SDS011;11908;50.806;4.424;2023-01-29T06:05:11;51.00;;;26.85;;
23470;SDS011;11908;50.806;4.424;2023-01-29T06:07:37;47.95;;;25.75;;
23470;SDS011;11908;50.806;4.424;2023-01-29T06:10:04;44.85;;;23.65;;
23470;SDS011;11908;50.806;4.424;2023-01-29T06:12:30;47.20;;;24.10;;
23470;SDS011;11908;50.806;4.424;2023-01-29T06:14:56;43.78;;;24.15;;
23470;SDS011;11908;50.806;4.424;2023-01-29T06:17:21;47.13;;;25.45;;
23470;SDS011;11908;50.806;4.424;2023-01-29T06:19:47;48.80;;;26.17;;
23470;SDS011;11908;50.806;4.424;2023-01-29T06:22:13;47.72;;;25.45;;
23470;SDS011;11908;50.806;4.424;2023-01-29T06:24:38;45.72;;;24.92;;
23470;SDS011;11908;50.806;4.424;2023-01-29T06:27:04;42.58;;;24.05;;
23470;SDS011;11908;50.806;4.424;2023-01-29T06:29:30;47.97;;;24.77;;
23470;SDS011;11908;50.806;4.424;2023-01-29T06:31:55;46.58;;;25.73;;
23470;SDS011;11908;50.806;4.424;2023-01-29T06:34:21;42.63;;;23.05;;
23470;SDS011;11908;50.806;4.424;2023-01-29T06:36:47;42.13;;;24.50;;
23470;SDS011;11908;50.806;4.424;2023-01-29T06:39:12;44.58;;;24.35;;
23470;SDS011;11908;50.806;4.424;2023-01-29T06:41:38;40.85;;;22.77;;
23470;SDS011;11908;50.806;4.424;2023-01-29T06:44:04;43.35;;;23.60;;
23470;SDS011;11908;50.806;4.424;2023-01-29T06:46:29;40.20;;;22.23;;
23470;SDS011;11908;50.806;4.424;2023-01-29T06:48:58;42.10;;;23.92;;
23470;SDS011;11908;50.806;4.424;2023-01-29T06:51:24;46.95;;;25.10;;
23470;SDS011;11908;50.806;4.424;2023-01-29T06:53:50;43.85;;;23.95;;
23470;SDS011;11908;50.806;4.424;2023-01-29T06:56:18;44.28;;;24.05;;
23470;SDS011;11908;50.806;4.424;2023-01-29T06:58:44;45.78;;;25.58;;
23470;SDS011;11908;50.806;4.424;2023-01-29T07:01:10;44.10;;;24.17;;
23470;SDS011;11908;50.806;4.424;2023-01-29T07:03:36;42.83;;;24.15;;
23470;SDS011;11908;50.806;4.424;2023-01-29T07:06:03;48.70;;;25.85;;
23470;SDS011;11908;50.806;4.424;2023-01-29T07:08:29;49.58;;;27.10;;
23470;SDS011;11908;50.806;4.424;2023-01-29T07:10:58;44.83;;;24.95;;
23470;SDS011;11908;50.806;4.424;2023-01-29T07:13:24;45.95;;;25.08;;
23470;SDS011;11908;50.806;4.424;2023-01-29T07:15:50;37.85;;;22.50;;
23470;SDS011;11908;50.806;4.424;2023-01-29T07:18:16;44.00;;;24.13;;
23470;SDS011;11908;50.806;4.424;2023-01-29T07:20:41;44.72;;;25.10;;
23470;SDS011;11908;50.806;4.424;2023-01-29T07:23:08;46.35;;;26.60;;
23470;SDS011;11908;50.806;4.424;2023-01-29T07:25:36;44.63;;;24.20;;
23470;SDS011;11908;50.806;4.424;2023-01-29T07:28:02;52.33;;;28.50;;
23470;SDS011;11908;50.806;4.424;2023-01-29T07:30:28;47.67;;;26.88;;
23470;SDS011;11908;50.806;4.424;2023-01-29T07:32:54;49.58;;;28.95;;
23470;SDS011;11908;50.806;4.424;2023-01-29T07:35:20;53.08;;;28.33;;
23470;SDS011;11908;50.806;4.424;2023-01-29T07:37:49;55.03;;;30.50;;
23470;SDS011;11908;50.806;4.424;2023-01-29T07:40:15;57.67;;;29.83;;
23470;SDS011;11908;50.806;4.424;2023-01-29T07:42:41;61.55;;;32.22;;
23470;SDS011;11908;50.806;4.424;2023-01-29T07:45:08;58.17;;;30.77;;
23470;SDS011;11908;50.806;4.424;2023-01-29T07:47:34;52.47;;;30.83;;
23470;SDS011;11908;50.806;4.424;2023-01-29T07:50:00;55.45;;;30.63;;
23470;SDS011;11908;50.806;4.424;2023-01-29T07:52:30;58.97;;;30.17;;
23470;SDS011;11908;50.806;4.424;2023-01-29T07:54:57;50.92;;;30.67;;
23470;SDS011;11908;50.806;4.424;2023-01-29T07:57:23;56.85;;;30.05;;
23470;SDS011;11908;50.806;4.424;2023-01-29T07:59:49;51.58;;;29.95;;
23470;SDS011;11908;50.806;4.424;2023-01-29T08:02:15;54.65;;;30.55;;
23470;SDS011;11908;50.806;4.424;2023-01-29T08:04:40;55.45;;;31.63;;
23470;SDS011;11908;50.806;4.424;2023-01-29T08:07:06;56.33;;;31.00;;
23470;SDS011;11908;50.806;4.424;2023-01-29T08:09:33;54.15;;;30.85;;
23470;SDS011;11908;50.806;4.424;2023-01-29T08:12:00;57.75;;;30.13;;
23470;SDS011;11908;50.806;4.424;2023-01-29T08:14:25;64.50;;;30.80;;
23470;SDS011;11908;50.806;4.424;2023-01-29T08:16:51;54.47;;;31.98;;
23470;SDS011;11908;50.806;4.424;2023-01-29T08:19:16;58.17;;;32.63;;
23470;SDS011;11908;50.806;4.424;2023-01-29T08:21:42;58.55;;;30.98;;
23470;SDS011;11908;50.806;4.424;2023-01-29T08:24:08;61.28;;;30.10;;
23470;SDS011;11908;50.806;4.424;2023-01-29T08:26:33;56.72;;;29.65;;
23470;SDS011;11908;50.806;4.424;2023-01-29T08:28:59;58.83;;;30.85;;
23470;SDS011;11908;50.806;4.424;2023-01-29T08:31:25;53.78;;;29.17;;
23470;SDS011;11908;50.806;4.424;2023-01-29T08:33:52;50.53;;;29.33;;
23470;SDS011;11908;50.806;4.424;2023-01-29T08:36:18;50.13;;;29.45;;
23470;SDS011;11908;50.806;4.424;2023-01-29T08:38:44;51.08;;;29.70;;
23470;SDS011;11908;50.806;4.424;2023-01-29T08:41:10;48.55;;;27.83;;
23470;SDS011;11908;50.806;4.424;2023-01-29T08:43:35;51.47;;;29.27;;
23470;SDS011;11908;50.806;4.424;2023-01-29T08:46:03;49.05;;;29.20;;
23470;SDS011;11908;50.806;4.424;2023-01-29T08:48:29;52.78;;;28.67;;
23470;SDS011;11908;50.806;4.424;2023-01-29T08:50:56;51.17;;;30.40;;
23470;SDS011;11908;50.806;4.424;2023-01-29T08:53:23;52.03;;;29.33;;
23470;SDS011;11908;50.806;4.424;2023-01-29T08:55:50;51.92;;;28.75;;
23470;SDS011;11908;50.806;4.424;2023-01-29T08:58:15;51.38;;;30.67;;
23470;SDS011;11908;50.806;4.424;2023-01-29T09:00:41;52.00;;;29.77;;
23470;SDS011;11908;50.806;4.424;2023-01-29T09:03:07;55.20;;;29.73;;
23470;SDS011;11908;50.806;4.424;2023-01-29T09:05:34;50.63;;;29.35;;
23470;SDS011;11908;50.806;4.424;2023-01-29T09:08:00;47.95;;;28.95;;
23470;SDS011;11908;50.806;4.424;2023-01-29T09:10:26;45.95;;;26.77;;
23470;SDS011;11908;50.806;4.424;2023-01-29T09:12:51;51.20;;;29.13;;
23470;SDS011;11908;50.806;4.424;2023-01-29T09:15:17;55.30;;;27.75;;
23470;SDS011;11908;50.806;4.424;2023-01-29T09:17:43;50.38;;;28.55;;
23470;SDS011;11908;50.806;4.424;2023-01-29T09:20:09;49.65;;;27.40;;
23470;SDS011;11908;50.806;4.424;2023-01-29T09:22:35;49.05;;;27.08;;
23470;SDS011;11908;50.806;4.424;2023-01-29T09:25:00;46.50;;;27.27;;
23470;SDS011;11908;50.806;4.424;2023-01-29T09:27:26;45.55;;;27.17;;
23470;SDS011;11908;50.806;4.424;2023-01-29T09:29:52;48.72;;;27.67;;
23470;SDS011;11908;50.806;4.424;2023-01-29T09:32:18;49.92;;;27.48;;
23470;SDS011;11908;50.806;4.424;2023-01-29T09:34:43;47.15;;;25.58;;
23470;SDS011;11908;50.806;4.424;2023-01-29T09:37:09;45.92;;;26.80;;
23470;SDS011;11908;50.806;4.424;2023-01-29T09:39:35;49.03;;;28.33;;
23470;SDS011;11908;50.806;4.424;2023-01-29T09:42:18;46.45;;;25.98;;
23470;SDS011;11908;50.806;4.424;2023-01-29T09:47:24;45.80;;;26.65;;
23470;SDS011;11908;50.806;4.424;2023-01-29T09:49:54;50.15;;;26.75;;
23470;SDS011;11908;50.806;4.424;2023-01-29T09:52:25;49.47;;;26.97;;
23470;SDS011;11908;50.806;4.424;2023-01-29T09:57:28;45.13;;;25.55;;
23470;SDS011;11908;50.806;4.424;2023-01-29T10:00:17;45.40;;;26.42;;
23470;SDS011;11908;50.806;4.424;2023-01-29T10:08:39;40.60;;;24.95;;
23470;SDS011;11908;50.806;4.424;2023-01-29T10:11:25;40.25;;;23.35;;
23470;SDS011;11908;50.806;4.424;2023-01-29T10:17:13;41.00;;;23.90;;
23470;SDS011;11908;50.806;4.424;2023-01-29T10:25:11;40.83;;;23.20;;
23470;SDS011;11908;50.806;4.424;2023-01-29T10:27:40;41.38;;;23.90;;
23470;SDS011;11908;50.806;4.424;2023-01-29T10:32:58;39.35;;;21.90;;
23470;SDS011;11908;50.806;4.424;2023-01-29T10:35:28;35.75;;;22.15;;
23470;SDS011;11908;50.806;4.424;2023-01-29T10:38:01;40.67;;;22.48;;
23470;SDS011;11908;50.806;4.424;2023-01-29T10:43:35;33.08;;;19.85;;
23470;SDS011;11908;50.806;4.424;2023-01-29T10:49:24;35.13;;;20.70;;
23470;SDS011;11908;50.806;4.424;2023-01-29T11:00:19;39.00;;;21.83;;
23470;SDS011;11908;50.806;4.424;2023-01-29T11:02:49;40.40;;;22.33;;
23470;SDS011;11908;50.806;4.424;2023-01-29T11:05:26;38.35;;;21.27;;
23470;SDS011;11908;50.806;4.424;2023-01-29T11:08:20;28.17;;;15.90;;
23470;SDS011;11908;50.806;4.424;2023-01-29T11:11:10;35.22;;;21.15;;
23470;SDS011;11908;50.806;4.424;2023-01-29T11:13:42;39.65;;;21.83;;
23470;SDS011;11908;50.806;4.424;2023-01-29T11:16:14;36.45;;;21.30;;
23470;SDS011;11908;50.806;4.424;2023-01-29T11:18:47;38.63;;;21.63;;
23470;SDS011;11908;50.806;4.424;2023-01-29T11:21:18;36.75;;;21.17;;
23470;SDS011;11908;50.806;4.424;2023-01-29T11:23:44;45.75;;;21.13;;
23470;SDS011;11908;50.806;4.424;2023-01-29T11:26:11;39.42;;;22.42;;
23470;SDS011;11908;50.806;4.424;2023-01-29T11:28:42;39.00;;;21.55;;
23470;SDS011;11908;50.806;4.424;2023-01-29T11:31:20;35.90;;;21.02;;
23470;SDS011;11908;50.806;4.424;2023-01-29T11:33:49;35.00;;;20.60;;
23470;SDS011;11908;50.806;4.424;2023-01-29T11:41:55;32.55;;;21.17;;
23470;SDS011;11908;50.806;4.424;2023-01-29T11:47:11;33.05;;;20.23;;
23470;SDS011;11908;50.806;4.424;2023-01-29T11:49:55;35.60;;;19.77;;
23470;SDS011;11908;50.806;4.424;2023-01-29T11:52:38;31.90;;;18.90;;
23470;SDS011;11908;50.806;4.424;2023-01-29T11:55:11;35.03;;;21.50;;
23470;SDS011;11908;50.806;4.424;2023-01-29T11:57:49;32.67;;;18.33;;
23470;SDS011;11908;50.806;4.424;2023-01-29T12:00:25;33.55;;;19.67;;
23470;SDS011;11908;50.806;4.424;2023-01-29T12:03:47;31.60;;;18.20;;
23470;SDS011;11908;50.806;4.424;2023-01-29T12:05:57;35.83;;;20.13;;
23470;SDS011;11908;50.806;4.424;2023-01-29T12:08:28;27.45;;;16.13;;
23470;SDS011;11908;50.806;4.424;2023-01-29T12:13:37;35.30;;;17.00;;
23470;SDS011;11908;50.806;4.424;2023-01-29T12:19:24;23.55;;;13.73;;
23470;SDS011;11908;50.806;4.424;2023-01-29T12:22:13;27.77;;;15.43;;
23470;SDS011;11908;50.806;4.424;2023-01-29T12:27:42;24.85;;;14.73;;
23470;SDS011;11908;50.806;4.424;2023-01-29T12:30:24;23.58;;;14.55;;
23470;SDS011;11908;50.806;4.424;2023-01-29T12:33:07;24.10;;;14.95;;
23470;SDS011;11908;50.806;4.424;2023-01-29T12:36:12;25.77;;;15.38;;
23470;SDS011;11908;50.806;4.424;2023-01-29T12:38:42;23.70;;;13.90;;
23470;SDS011;11908;50.806;4.424;2023-01-29T12:41:29;22.27;;;14.65;;
23470;SDS011;11908;50.806;4.424;2023-01-29T12:46:55;22.80;;;13.35;;
23470;SDS011;11908;50.806;4.424;2023-01-29T12:49:29;22.65;;;13.35;;
23470;SDS011;11908;50.806;4.424;2023-01-29T12:54:35;24.00;;;14.48;;
23470;SDS011;11908;50.806;4.424;2023-01-29T12:58:08;23.33;;;14.43;;
23470;SDS011;11908;50.806;4.424;2023-01-29T13:00:02;22.63;;;14.23;;
23470;SDS011;11908;50.806;4.424;2023-01-29T13:02:43;26.02;;;13.68;;
23470;SDS011;11908;50.806;4.424;2023-01-29T13:07:45;20.63;;;13.27;;
23470;SDS011;11908;50.806;4.424;2023-01-29T13:10:17;22.48;;;13.38;;
23470;SDS011;11908;50.806;4.424;2023-01-29T13:12:50;23.60;;;13.02;;
23470;SDS011;11908;50.806;4.424;2023-01-29T13:15:32;22.30;;;14.20;;
23470;SDS011;11908;50.806;4.424;2023-01-29T13:20:56;22.20;;;13.75;;
23470;SDS011;11908;50.806;4.424;2023-01-29T13:23:44;24.73;;;13.27;;
23470;SDS011;11908;50.806;4.424;2023-01-29T13:26:11;21.85;;;13.15;;
23470;SDS011;11908;50.806;4.424;2023-01-29T13:28:37;20.88;;;12.38;;
23470;SDS011;11908;50.806;4.424;2023-01-29T13:37:00;17.25;;;12.13;;
23470;SDS011;11908;50.806;4.424;2023-01-29T13:39:51;23.95;;;12.07;;
23470;SDS011;11908;50.806;4.424;2023-01-29T13:42:19;18.63;;;12.20;;
23470;SDS011;11908;50.806;4.424;2023-01-29T13:44:54;24.63;;;12.55;;
23470;SDS011;11908;50.806;4.424;2023-01-29T13:47:28;20.80;;;13.27;;
23470;SDS011;11908;50.806;4.424;2023-01-29T13:50:59;19.70;;;12.45;;
23470;SDS011;11908;50.806;4.424;2023-01-29T13:53:01;17.90;;;12.48;;
23470;SDS011;11908;50.806;4.424;2023-01-29T13:55:32;19.98;;;12.00;;
23470;SDS011;11908;50.806;4.424;2023-01-29T13:58:06;20.70;;;11.82;;
23470;SDS011;11908;50.806;4.424;2023-01-29T14:05:38;22.67;;;14.52;;
23470;SDS011;11908;50.806;4.424;2023-01-29T14:10:36;19.33;;;13.30;;
23470;SDS011;11908;50.806;4.424;2023-01-29T14:15:29;21.65;;;13.20;;
23470;SDS011;11908;50.806;4.424;2023-01-29T14:18:12;18.92;;;12.32;;
23470;SDS011;11908;50.806;4.424;2023-01-29T14:23:46;20.27;;;12.13;;
23470;SDS011;11908;50.806;4.424;2023-01-29T14:26:23;22.55;;;13.10;;
23470;SDS011;11908;50.806;4.424;2023-01-29T14:31:57;25.73;;;14.40;;
23470;SDS011;11908;50.806;4.424;2023-01-29T14:37:01;22.58;;;13.65;;
23470;SDS011;11908;50.806;4.424;2023-01-29T14:42:28;22.08;;;14.23;;
23470;SDS011;11908;50.806;4.424;2023-01-29T14:55:46;22.17;;;13.85;;
23470;SDS011;11908;50.806;4.424;2023-01-29T15:01:03;22.10;;;14.45;;
23470;SDS011;11908;50.806;4.424;2023-01-29T15:03:36;24.20;;;14.98;;
23470;SDS011;11908;50.806;4.424;2023-01-29T15:06:08;23.70;;;15.55;;
23470;SDS011;11908;50.806;4.424;2023-01-29T15:09:02;26.42;;;15.15;;
23470;SDS011;11908;50.806;4.424;2023-01-29T15:11:49;23.10;;;15.27;;
23470;SDS011;11908;50.806;4.424;2023-01-29T15:14:28;26.35;;;15.55;;
23470;SDS011;11908;50.806;4.424;2023-01-29T15:17:01;25.83;;;15.73;;
23470;SDS011;11908;50.806;4.424;2023-01-29T15:19:46;27.67;;;17.05;;
23470;SDS011;11908;50.806;4.424;2023-01-29T15:24:46;20.60;;;12.77;;
23470;SDS011;11908;50.806;4.424;2023-01-29T15:27:26;29.38;;;17.38;;
23470;SDS011;11908;50.806;4.424;2023-01-29T15:29:55;36.58;;;18.40;;
23470;SDS011;11908;50.806;4.424;2023-01-29T15:32:30;30.90;;;18.25;;
23470;SDS011;11908;50.806;4.424;2023-01-29T15:34:57;30.63;;;19.05;;
23470;SDS011;11908;50.806;4.424;2023-01-29T15:37:31;30.92;;;18.73;;
23470;SDS011;11908;50.806;4.424;2023-01-29T15:39:58;33.35;;;20.13;;
23470;SDS011;11908;50.806;4.424;2023-01-29T15:42:26;32.88;;;20.27;;
23470;SDS011;11908;50.806;4.424;2023-01-29T15:44:53;35.85;;;20.83;;
23470;SDS011;11908;50.806;4.424;2023-01-29T15:47:24;34.10;;;20.40;;
23470;SDS011;11908;50.806;4.424;2023-01-29T15:49:54;35.92;;;21.67;;
23470;SDS011;11908;50.806;4.424;2023-01-29T15:52:30;38.85;;;23.73;;
23470;SDS011;11908;50.806;4.424;2023-01-29T15:55:03;35.22;;;21.00;;
23470;SDS011;11908;50.806;4.424;2023-01-29T15:57:35;36.15;;;20.90;;
23470;SDS011;11908;50.806;4.424;2023-01-29T16:00:05;36.97;;;22.55;;
23470;SDS011;11908;50.806;4.424;2023-01-29T16:02:52;34.95;;;21.52;;
23470;SDS011;11908;50.806;4.424;2023-01-29T16:05:20;35.47;;;21.60;;
23470;SDS011;11908;50.806;4.424;2023-01-29T16:07:49;35.85;;;21.23;;
23470;SDS011;11908;50.806;4.424;2023-01-29T16:10:17;36.33;;;21.65;;
23470;SDS011;11908;50.806;4.424;2023-01-29T16:12:45;37.92;;;22.98;;
23470;SDS011;11908;50.806;4.424;2023-01-29T16:15:32;36.70;;;22.30;;
23470;SDS011;11908;50.806;4.424;2023-01-29T16:18:00;39.58;;;22.88;;
23470;SDS011;11908;50.806;4.424;2023-01-29T16:20:38;37.05;;;22.20;;
23470;SDS011;11908;50.806;4.424;2023-01-29T16:23:20;39.30;;;21.95;;
23470;SDS011;11908;50.806;4.424;2023-01-29T16:26:20;37.15;;;21.88;;
23470;SDS011;11908;50.806;4.424;2023-01-29T16:28:52;40.22;;;23.02;;
23470;SDS011;11908;50.806;4.424;2023-01-29T16:31:28;41.22;;;24.38;;
23470;SDS011;11908;50.806;4.424;2023-01-29T16:33:56;41.58;;;24.88;;
23470;SDS011;11908;50.806;4.424;2023-01-29T16:36:26;39.80;;;22.70;;
23470;SDS011;11908;50.806;4.424;2023-01-29T16:38:56;43.63;;;24.17;;
23470;SDS011;11908;50.806;4.424;2023-01-29T16:44:35;39.05;;;23.42;;
23470;SDS011;11908;50.806;4.424;2023-01-29T16:46:45;39.88;;;24.05;;
23470;SDS011;11908;50.806;4.424;2023-01-29T16:51:50;38.38;;;22.38;;
23470;SDS011;11908;50.806;4.424;2023-01-29T16:54:19;41.58;;;23.45;;
23470;SDS011;11908;50.806;4.424;2023-01-29T16:56:48;38.80;;;23.35;;
23470;SDS011;11908;50.806;4.424;2023-01-29T17:02:00;42.90;;;24.85;;
23470;SDS011;11908;50.806;4.424;2023-01-29T17:04:26;45.15;;;25.08;;
23470;SDS011;11908;50.806;4.424;2023-01-29T17:06:58;44.03;;;26.02;;
23470;SDS011;11908;50.806;4.424;2023-01-29T17:09:29;45.42;;;26.25;;
23470;SDS011;11908;50.806;4.424;2023-01-29T17:11:59;45.38;;;24.73;;
23470;SDS011;11908;50.806;4.424;2023-01-29T17:14:29;45.30;;;25.33;;
23470;SDS011;11908;50.806;4.424;2023-01-29T17:17:03;48.70;;;28.10;;
23470;SDS011;11908;50.806;4.424;2023-01-29T17:19:30;44.00;;;25.90;;
23470;SDS011;11908;50.806;4.424;2023-01-29T17:21:57;40.50;;;25.52;;
23470;SDS011;11908;50.806;4.424;2023-01-29T17:24:23;40.75;;;24.65;;
23470;SDS011;11908;50.806;4.424;2023-01-29T17:26:52;44.03;;;25.70;;
23470;SDS011;11908;50.806;4.424;2023-01-29T17:29:18;44.67;;;26.42;;
23470;SDS011;11908;50.806;4.424;2023-01-29T17:31:48;50.75;;;26.90;;
23470;SDS011;11908;50.806;4.424;2023-01-29T17:34:14;44.42;;;25.85;;
23470;SDS011;11908;50.806;4.424;2023-01-29T17:36:41;41.83;;;25.17;;
23470;SDS011;11908;50.806;4.424;2023-01-29T17:39:20;43.13;;;23.90;;
23470;SDS011;11908;50.806;4.424;2023-01-29T17:41:54;43.88;;;25.63;;
23470;SDS011;11908;50.806;4.424;2023-01-29T17:44:21;48.08;;;27.60;;
23470;SDS011;11908;50.806;4.424;2023-01-29T17:46:49;46.67;;;26.48;;
23470;SDS011;11908;50.806;4.424;2023-01-29T17:51:47;50.38;;;26.83;;
23470;SDS011;11908;50.806;4.424;2023-01-29T17:54:14;48.75;;;28.15;;